sensor_id;sensor_type;location;lat;lon;timestamp;pressure;altitude;pressure_sealevel;temperature;humidity
42727;BME280;28372;56.832;60.658;2022-10-16T00:01:23;98104.00;;;11.68;63.72
42727;BME280;28372;56.832;60.658;2022-10-16T00:03:51;98109.31;;;11.57;62.64
42727;BME280;28372;56.832;60.658;2022-10-16T00:06:20;98108.56;;;11.60;64.37
42727;BME280;28372;56.832;60.658;2022-10-16T00:08:48;98106.22;;;11.59;64.12
42727;BME280;28372;56.832;60.658;2022-10-16T00:11:19;98107.50;;;11.69;64.87
42727;BME280;28372;56.832;60.658;2022-10-16T00:13:49;98112.16;;;11.72;64.07
42727;BME280;28372;56.832;60.658;2022-10-16T00:16:18;98112.91;;;11.69;63.62
42727;BME280;28372;56.832;60.658;2022-10-16T00:18:46;98110.97;;;11.69;63.60
42727;BME280;28372;56.832;60.658;2022-10-16T00:21:16;98109.47;;;11.75;64.17
42727;BME280;28372;56.832;60.658;2022-10-16T00:24:05;98116.91;;;11.82;63.92
42727;BME280;28372;56.832;60.658;2022-10-16T00:26:34;98116.16;;;11.81;64.12
42727;BME280;28372;56.832;60.658;2022-10-16T00:29:04;98124.22;;;11.78;62.69
42727;BME280;28372;56.832;60.658;2022-10-16T00:31:32;98119.59;;;11.78;63.31
42727;BME280;28372;56.832;60.658;2022-10-16T00:33:59;98129.69;;;11.81;62.23
42727;BME280;28372;56.832;60.658;2022-10-16T00:36:27;98122.72;;;11.80;63.11
42727;BME280;28372;56.832;60.658;2022-10-16T00:38:57;98131.28;;;11.86;63.13
42727;BME280;28372;56.832;60.658;2022-10-16T00:41:32;98128.56;;;11.82;63.41
42727;BME280;28372;56.832;60.658;2022-10-16T00:44:03;98134.03;;;11.90;64.01
42727;BME280;28372;56.832;60.658;2022-10-16T00:46:41;98133.44;;;12.04;65.25
42727;BME280;28372;56.832;60.658;2022-10-16T00:49:16;98129.53;;;12.01;64.84
42727;BME280;28372;56.832;60.658;2022-10-16T00:51:48;98138.28;;;11.91;63.58
42727;BME280;28372;56.832;60.658;2022-10-16T00:54:24;98126.00;;;11.97;65.12
42727;BME280;28372;56.832;60.658;2022-10-16T00:56:53;98138.66;;;11.89;64.17
42727;BME280;28372;56.832;60.658;2022-10-16T00:59:28;98138.00;;;11.96;64.71
42727;BME280;28372;56.832;60.658;2022-10-16T01:01:55;98130.53;;;12.27;64.46
42727;BME280;28372;56.832;60.658;2022-10-16T01:04:24;98134.59;;;12.03;63.39
42727;BME280;28372;56.832;60.658;2022-10-16T01:18:00;98137.72;;;12.08;66.95
42727;BME280;28372;56.832;60.658;2022-10-16T01:20:31;98141.84;;;11.95;65.82
42727;BME280;28372;56.832;60.658;2022-10-16T01:28:57;98150.59;;;12.15;67.29
42727;BME280;28372;56.832;60.658;2022-10-16T01:31:31;98148.91;;;12.03;65.39
42727;BME280;28372;56.832;60.658;2022-10-16T01:34:07;98147.75;;;12.04;65.37
42727;BME280;28372;56.832;60.658;2022-10-16T01:36:40;98148.91;;;12.03;65.30
42727;BME280;28372;56.832;60.658;2022-10-16T01:39:10;98146.56;;;12.02;65.18
42727;BME280;28372;56.832;60.658;2022-10-16T01:41:42;98138.06;;;12.03;65.39
42727;BME280;28372;56.832;60.658;2022-10-16T01:44:21;98144.78;;;12.16;65.92
42727;BME280;28372;56.832;60.658;2022-10-16T01:46:51;98149.72;;;12.07;64.37
42727;BME280;28372;56.832;60.658;2022-10-16T01:49:21;98148.94;;;12.07;63.99
42727;BME280;28372;56.832;60.658;2022-10-16T01:51:52;98149.66;;;12.00;65.65
42727;BME280;28372;56.832;60.658;2022-10-16T01:54:23;98147.28;;;11.95;66.36
42727;BME280;28372;56.832;60.658;2022-10-16T01:56:53;98148.44;;;11.94;66.68
42727;BME280;28372;56.832;60.658;2022-10-16T01:59:24;98154.63;;;11.94;66.88
42727;BME280;28372;56.832;60.658;2022-10-16T02:01:58;98158.16;;;11.98;66.08
42727;BME280;28372;56.832;60.658;2022-10-16T02:04:31;98157.03;;;11.99;66.32
42727;BME280;28372;56.832;60.658;2022-10-16T02:07:00;98163.53;;;11.95;65.44
42727;BME280;28372;56.832;60.658;2022-10-16T02:09:29;98164.34;;;11.95;65.06
42727;BME280;28372;56.832;60.658;2022-10-16T02:11:59;98168.25;;;11.98;65.11
42727;BME280;28372;56.832;60.658;2022-10-16T02:14:30;98158.84;;;11.92;64.91
42727;BME280;28372;56.832;60.658;2022-10-16T02:16:57;98158.81;;;11.88;65.02
42727;BME280;28372;56.832;60.658;2022-10-16T02:19:25;98164.94;;;11.85;65.23
42727;BME280;28372;56.832;60.658;2022-10-16T02:22:04;98164.03;;;12.04;66.09
42727;BME280;28372;56.832;60.658;2022-10-16T02:24:40;98168.25;;;12.02;65.86
42727;BME280;28372;56.832;60.658;2022-10-16T02:27:16;98170.16;;;11.97;67.73
42727;BME280;28372;56.832;60.658;2022-10-16T02:29:53;98170.19;;;12.01;66.54
42727;BME280;28372;56.832;60.658;2022-10-16T02:32:30;98169.41;;;12.00;66.38
42727;BME280;28372;56.832;60.658;2022-10-16T02:34:59;98173.22;;;11.96;64.64
42727;BME280;28372;56.832;60.658;2022-10-16T02:37:29;98171.56;;;11.88;63.91
42727;BME280;28372;56.832;60.658;2022-10-16T02:39:58;98166.19;;;11.91;64.18
42727;BME280;28372;56.832;60.658;2022-10-16T02:42:33;98177.97;;;12.03;65.21
42727;BME280;28372;56.832;60.658;2022-10-16T02:45:01;98174.69;;;11.90;64.04
42727;BME280;28372;56.832;60.658;2022-10-16T02:47:29;98182.81;;;11.90;64.73
42727;BME280;28372;56.832;60.658;2022-10-16T02:49:57;98176.59;;;11.86;64.60
42727;BME280;28372;56.832;60.658;2022-10-16T02:52:24;98175.03;;;11.85;64.71
42727;BME280;28372;56.832;60.658;2022-10-16T02:54:52;98175.03;;;11.85;64.52
42727;BME280;28372;56.832;60.658;2022-10-16T02:57:19;98176.59;;;11.86;64.13
42727;BME280;28372;56.832;60.658;2022-10-16T02:59:46;98183.16;;;11.85;63.39
42727;BME280;28372;56.832;60.658;2022-10-16T03:02:14;98173.44;;;11.83;63.10
42727;BME280;28372;56.832;60.658;2022-10-16T03:04:41;98185.47;;;11.82;63.01
42727;BME280;28372;56.832;60.658;2022-10-16T03:07:09;98182.75;;;11.82;62.13
42727;BME280;28372;56.832;60.658;2022-10-16T03:09:36;98180.81;;;11.83;62.46
42727;BME280;28372;56.832;60.658;2022-10-16T03:12:04;98190.13;;;11.86;62.50
42727;BME280;28372;56.832;60.658;2022-10-16T03:14:31;98183.53;;;11.83;62.69
42727;BME280;28372;56.832;60.658;2022-10-16T03:16:59;98186.28;;;11.87;62.48
42727;BME280;28372;56.832;60.658;2022-10-16T03:19:26;98197.13;;;11.87;62.26
42727;BME280;28372;56.832;60.658;2022-10-16T03:21:54;98192.84;;;11.86;62.21
42727;BME280;28372;56.832;60.658;2022-10-16T03:24:21;98197.91;;;11.87;62.27
42727;BME280;28372;56.832;60.658;2022-10-16T03:26:48;98204.09;;;11.88;62.43
42727;BME280;28372;56.832;60.658;2022-10-16T03:29:16;98203.69;;;11.86;61.89
42727;BME280;28372;56.832;60.658;2022-10-16T03:31:43;98207.59;;;11.88;62.15
42727;BME280;28372;56.832;60.658;2022-10-16T03:34:11;98199.84;;;11.87;62.38
42727;BME280;28372;56.832;60.658;2022-10-16T03:36:41;98210.44;;;11.99;63.57
42727;BME280;28372;56.832;60.658;2022-10-16T03:39:09;98212.28;;;11.91;62.03
42727;BME280;28372;56.832;60.658;2022-10-16T03:41:36;98209.97;;;11.93;61.99
42727;BME280;28372;56.832;60.658;2022-10-16T03:44:03;98217.31;;;11.93;61.92
42727;BME280;28372;56.832;60.658;2022-10-16T03:46:31;98211.13;;;11.92;62.09
42727;BME280;28372;56.832;60.658;2022-10-16T03:48:58;98213.94;;;11.99;61.90
42727;BME280;28372;56.832;60.658;2022-10-16T03:51:26;98217.06;;;12.02;61.81
42727;BME280;28372;56.832;60.658;2022-10-16T03:53:53;98218.19;;;12.00;61.71
42727;BME280;28372;56.832;60.658;2022-10-16T03:56:21;98221.00;;;12.08;61.38
42727;BME280;28372;56.832;60.658;2022-10-16T03:58:48;98226.44;;;12.08;60.91
42727;BME280;28372;56.832;60.658;2022-10-16T04:01:16;98222.97;;;12.11;61.14
42727;BME280;28372;56.832;60.658;2022-10-16T04:03:43;98224.50;;;12.12;60.84
42727;BME280;28372;56.832;60.658;2022-10-16T04:06:11;98227.66;;;12.14;60.70
42727;BME280;28372;56.832;60.658;2022-10-16T04:08:38;98226.16;;;12.20;60.14
42727;BME280;28372;56.832;60.658;2022-10-16T04:11:06;98220.72;;;12.16;59.86
42727;BME280;28372;56.832;60.658;2022-10-16T04:13:33;98232.00;;;12.22;59.48
42727;BME280;28372;56.832;60.658;2022-10-16T04:16:01;98232.78;;;12.23;59.35
42727;BME280;28372;56.832;60.658;2022-10-16T04:18:28;98239.00;;;12.23;58.96
42727;BME280;28372;56.832;60.658;2022-10-16T04:20:56;98230.44;;;12.21;59.00
42727;BME280;28372;56.832;60.658;2022-10-16T04:23:23;98242.78;;;12.19;58.66
42727;BME280;28372;56.832;60.658;2022-10-16T04:25:51;98243.59;;;12.19;58.95
42727;BME280;28372;56.832;60.658;2022-10-16T04:28:18;98239.72;;;12.20;59.02
42727;BME280;28372;56.832;60.658;2022-10-16T04:30:46;98244.75;;;12.22;58.88
42727;BME280;28372;56.832;60.658;2022-10-16T04:33:13;98250.25;;;12.25;58.90
42727;BME280;28372;56.832;60.658;2022-10-16T04:35:41;98244.44;;;12.27;58.58
42727;BME280;28372;56.832;60.658;2022-10-16T04:38:08;98246.03;;;12.31;58.29
42727;BME280;28372;56.832;60.658;2022-10-16T04:40:35;98244.88;;;12.32;58.78
42727;BME280;28372;56.832;60.658;2022-10-16T04:43:04;98251.91;;;12.37;58.53
42727;BME280;28372;56.832;60.658;2022-10-16T04:45:32;98250.00;;;12.41;58.22
42727;BME280;28372;56.832;60.658;2022-10-16T04:48:00;98252.00;;;12.48;57.56
42727;BME280;28372;56.832;60.658;2022-10-16T04:50:27;98253.63;;;12.53;57.01
42727;BME280;28372;56.832;60.658;2022-10-16T04:53:06;98266.13;;;12.64;56.66
42727;BME280;28372;56.832;60.658;2022-10-16T04:55:34;98255.31;;;12.68;56.32
42727;BME280;28372;56.832;60.658;2022-10-16T04:58:01;98251.00;;;12.63;55.63
42727;BME280;28372;56.832;60.658;2022-10-16T05:00:29;98247.09;;;12.61;55.93
42727;BME280;28372;56.832;60.658;2022-10-16T05:02:56;98257.69;;;12.73;56.22
42727;BME280;28372;56.832;60.658;2022-10-16T05:05:27;98252.28;;;12.77;55.92
42727;BME280;28372;56.832;60.658;2022-10-16T05:07:54;98258.53;;;12.81;55.30
42727;BME280;28372;56.832;60.658;2022-10-16T05:10:22;98256.97;;;12.80;54.39
42727;BME280;28372;56.832;60.658;2022-10-16T05:12:49;98251.59;;;12.83;55.20
42727;BME280;28372;56.832;60.658;2022-10-16T05:15:18;98245.78;;;12.85;55.39
42727;BME280;28372;56.832;60.658;2022-10-16T05:17:45;98259.41;;;12.96;55.78
42727;BME280;28372;56.832;60.658;2022-10-16T05:20:13;98264.13;;;13.02;55.91
42727;BME280;28372;56.832;60.658;2022-10-16T05:22:40;98264.56;;;13.08;55.79
42727;BME280;28372;56.832;60.658;2022-10-16T05:25:08;98265.41;;;13.19;56.21
42727;BME280;28372;56.832;60.658;2022-10-16T05:27:35;98264.50;;;13.49;56.88
42727;BME280;28372;56.832;60.658;2022-10-16T05:30:03;98263.03;;;13.66;55.71
42727;BME280;28372;56.832;60.658;2022-10-16T05:32:35;98266.59;;;13.81;55.03
42727;BME280;28372;56.832;60.658;2022-10-16T05:35:03;98261.22;;;13.92;53.82
42727;BME280;28372;56.832;60.658;2022-10-16T05:37:35;98263.56;;;13.97;52.16
42727;BME280;28372;56.832;60.658;2022-10-16T05:40:03;98271.38;;;14.06;51.35
42727;BME280;28372;56.832;60.658;2022-10-16T05:42:31;98272.91;;;14.03;50.95
42727;BME280;28372;56.832;60.658;2022-10-16T05:44:59;98276.81;;;14.06;50.58
42727;BME280;28372;56.832;60.658;2022-10-16T05:47:27;98267.47;;;14.03;50.55
42727;BME280;28372;56.832;60.658;2022-10-16T05:49:55;98269.41;;;14.03;49.69
42727;BME280;28372;56.832;60.658;2022-10-16T05:52:22;98272.13;;;13.99;49.16
42727;BME280;28372;56.832;60.658;2022-10-16T05:54:49;98282.22;;;13.99;49.31
42727;BME280;28372;56.832;60.658;2022-10-16T05:57:17;98276.00;;;13.98;49.61
42727;BME280;28372;56.832;60.658;2022-10-16T05:59:44;98287.28;;;14.00;49.49
42727;BME280;28372;56.832;60.658;2022-10-16T06:02:13;98281.06;;;14.00;50.05
42727;BME280;28372;56.832;60.658;2022-10-16T06:04:41;98281.84;;;14.00;49.86
42727;BME280;28372;56.832;60.658;2022-10-16T06:07:08;98285.72;;;13.96;49.63
42727;BME280;28372;56.832;60.658;2022-10-16T06:09:35;98290.34;;;13.95;50.14
42727;BME280;28372;56.832;60.658;2022-10-16T06:12:04;98289.97;;;13.97;51.83
42727;BME280;28372;56.832;60.658;2022-10-16T06:14:32;98283.31;;;13.83;51.55
42727;BME280;28372;56.832;60.658;2022-10-16T06:16:59;98284.44;;;13.79;50.66
42727;BME280;28372;56.832;60.658;2022-10-16T06:19:27;98289.09;;;13.75;50.86
42727;BME280;28372;56.832;60.658;2022-10-16T06:21:54;98285.97;;;13.73;50.27
42727;BME280;28372;56.832;60.658;2022-10-16T06:24:21;98289.47;;;13.69;50.14
42727;BME280;28372;56.832;60.658;2022-10-16T06:26:49;98292.13;;;13.66;49.92
42727;BME280;28372;56.832;60.658;2022-10-16T06:29:16;98290.22;;;13.66;50.14
42727;BME280;28372;56.832;60.658;2022-10-16T06:31:44;98289.81;;;13.61;50.90
42727;BME280;28372;56.832;60.658;2022-10-16T06:34:11;98297.13;;;13.53;50.71
42727;BME280;28372;56.832;60.658;2022-10-16T06:36:39;98295.94;;;13.50;51.17
42727;BME280;28372;56.832;60.658;2022-10-16T06:39:07;98295.53;;;13.48;51.06
42727;BME280;28372;56.832;60.658;2022-10-16T06:41:34;98297.84;;;13.46;51.53
42727;BME280;28372;56.832;60.658;2022-10-16T06:44:14;98293.22;;;13.47;51.22
42727;BME280;28372;56.832;60.658;2022-10-16T06:46:42;98288.97;;;13.49;51.52
42727;BME280;28372;56.832;60.658;2022-10-16T06:49:09;98290.88;;;13.49;51.82
42727;BME280;28372;56.832;60.658;2022-10-16T06:51:37;98286.25;;;13.49;51.32
42727;BME280;28372;56.832;60.658;2022-10-16T06:54:09;98290.88;;;13.49;50.83
42727;BME280;28372;56.832;60.658;2022-10-16T06:56:37;98286.59;;;13.48;51.36
42727;BME280;28372;56.832;60.658;2022-10-16T06:59:04;98288.97;;;13.49;51.38
42727;BME280;28372;56.832;60.658;2022-10-16T07:01:32;98292.84;;;13.52;50.97
42727;BME280;28372;56.832;60.658;2022-10-16T07:04:01;98302.16;;;13.54;51.31
42727;BME280;28372;56.832;60.658;2022-10-16T07:06:31;98298.69;;;13.58;51.43
42727;BME280;28372;56.832;60.658;2022-10-16T07:09:02;98305.31;;;13.60;51.04
42727;BME280;28372;56.832;60.658;2022-10-16T07:11:30;98297.16;;;13.57;50.54
42727;BME280;28372;56.832;60.658;2022-10-16T07:13:58;98301.41;;;13.58;50.51
42727;BME280;28372;56.832;60.658;2022-10-16T07:16:27;98294.44;;;13.60;49.51
42727;BME280;28372;56.832;60.658;2022-10-16T07:18:57;98313.88;;;13.62;48.57
42727;BME280;28372;56.832;60.658;2022-10-16T07:21:33;98313.91;;;13.69;48.78
42727;BME280;28372;56.832;60.658;2022-10-16T07:24:06;98314.69;;;13.66;48.10
42727;BME280;28372;56.832;60.658;2022-10-16T07:26:36;98302.63;;;13.64;48.28
42727;BME280;28372;56.832;60.658;2022-10-16T07:29:03;98298.69;;;13.58;48.20
42727;BME280;28372;56.832;60.658;2022-10-16T07:31:31;98298.72;;;13.61;47.77
42727;BME280;28372;56.832;60.658;2022-10-16T07:33:59;98312.34;;;13.65;47.98
42727;BME280;28372;56.832;60.658;2022-10-16T07:36:27;98309.97;;;13.60;47.40
42727;BME280;28372;56.832;60.658;2022-10-16T07:38:55;98313.41;;;13.53;47.63
42727;BME280;28372;56.832;60.658;2022-10-16T07:41:26;98301.78;;;13.52;48.09
42727;BME280;28372;56.832;60.658;2022-10-16T07:43:54;98313.81;;;13.51;48.11
42727;BME280;28372;56.832;60.658;2022-10-16T07:46:23;98319.22;;;13.51;47.91
42727;BME280;28372;56.832;60.658;2022-10-16T07:48:51;98319.63;;;13.50;48.13
42727;BME280;28372;56.832;60.658;2022-10-16T07:51:21;98321.56;;;13.53;47.89
42727;BME280;28372;56.832;60.658;2022-10-16T07:53:49;98324.63;;;13.48;47.83
42727;BME280;28372;56.832;60.658;2022-10-16T07:56:17;98324.63;;;13.48;48.11
42727;BME280;28372;56.832;60.658;2022-10-16T07:58:45;98320.69;;;13.38;47.81
42727;BME280;28372;56.832;60.658;2022-10-16T08:01:16;98327.72;;;13.43;48.56
42727;BME280;28372;56.832;60.658;2022-10-16T08:03:45;98327.72;;;13.43;48.45
42727;BME280;28372;56.832;60.658;2022-10-16T08:06:14;98320.69;;;13.38;48.88
42727;BME280;28372;56.832;60.658;2022-10-16T08:08:41;98321.84;;;13.37;48.41
42727;BME280;28372;56.832;60.658;2022-10-16T08:11:09;98313.97;;;13.28;48.19
42727;BME280;28372;56.832;60.658;2022-10-16T08:13:37;98330.31;;;13.32;48.04
42727;BME280;28372;56.832;60.658;2022-10-16T08:16:05;98323.69;;;13.29;47.75
42727;BME280;28372;56.832;60.658;2022-10-16T08:18:37;98325.66;;;13.29;48.46
42727;BME280;28372;56.832;60.658;2022-10-16T08:21:06;98331.88;;;13.33;47.49
42727;BME280;28372;56.832;60.658;2022-10-16T08:23:34;98335.69;;;13.25;47.59
42727;BME280;28372;56.832;60.658;2022-10-16T08:26:04;98337.25;;;13.26;47.84
42727;BME280;28372;56.832;60.658;2022-10-16T08:28:32;98336.03;;;13.19;47.79
42727;BME280;28372;56.832;60.658;2022-10-16T08:31:15;98336.94;;;13.34;49.50
42727;BME280;28372;56.832;60.658;2022-10-16T08:33:47;98328.25;;;13.18;47.91
42727;BME280;28372;56.832;60.658;2022-10-16T08:36:16;98332.13;;;13.17;48.42
42727;BME280;28372;56.832;60.658;2022-10-16T08:38:43;98331.75;;;13.15;48.30
42727;BME280;28372;56.832;60.658;2022-10-16T08:47:23;98343.03;;;13.20;51.01
42727;BME280;28372;56.832;60.658;2022-10-16T08:49:59;98336.75;;;13.13;51.01
42727;BME280;28372;56.832;60.658;2022-10-16T08:52:31;98333.53;;;13.00;50.68
42727;BME280;28372;56.832;60.658;2022-10-16T08:55:00;98335.44;;;12.96;50.19
42727;BME280;28372;56.832;60.658;2022-10-16T08:57:29;98338.53;;;12.94;50.67
42727;BME280;28372;56.832;60.658;2022-10-16T09:00:12;98342.56;;;13.11;51.29
42727;BME280;28372;56.832;60.658;2022-10-16T09:08:35;98338.25;;;13.07;51.96
42727;BME280;28372;56.832;60.658;2022-10-16T09:11:10;98348.56;;;12.90;50.63
42727;BME280;28372;56.832;60.658;2022-10-16T09:13:56;98357.97;;;12.96;51.37
42727;BME280;28372;56.832;60.658;2022-10-16T09:16:34;98356.00;;;12.97;50.09
42727;BME280;28372;56.832;60.658;2022-10-16T09:19:27;98365.38;;;13.03;50.91
42727;BME280;28372;56.832;60.658;2022-10-16T09:21:56;98355.88;;;12.82;49.40
42727;BME280;28372;56.832;60.658;2022-10-16T09:24:26;98360.44;;;12.75;48.98
42727;BME280;28372;56.832;60.658;2022-10-16T09:26:55;98364.66;;;12.72;48.85
42727;BME280;28372;56.832;60.658;2022-10-16T09:29:23;98361.56;;;12.70;48.41
42727;BME280;28372;56.832;60.658;2022-10-16T09:31:53;98372.81;;;12.72;48.22
42727;BME280;28372;56.832;60.658;2022-10-16T09:36:55;98370.09;;;12.72;48.75
42727;BME280;28372;56.832;60.658;2022-10-16T09:39:24;98372.38;;;12.66;48.33
42727;BME280;28372;56.832;60.658;2022-10-16T09:41:52;98380.88;;;12.65;48.54
42727;BME280;28372;56.832;60.658;2022-10-16T09:44:26;98389.53;;;12.74;49.86
42727;BME280;28372;56.832;60.658;2022-10-16T09:47:03;98383.72;;;12.76;50.12
42727;BME280;28372;56.832;60.658;2022-10-16T09:49:31;98381.25;;;12.63;49.41
42727;BME280;28372;56.832;60.658;2022-10-16T09:52:12;98388.03;;;12.80;51.11
42727;BME280;28372;56.832;60.658;2022-10-16T09:54:55;98384.50;;;12.76;50.68
42727;BME280;28372;56.832;60.658;2022-10-16T09:57:24;98391.28;;;12.59;49.91
42727;BME280;28372;56.832;60.658;2022-10-16T09:59:57;98367.94;;;12.51;51.12
42727;BME280;28372;56.832;60.658;2022-10-16T10:02:29;98391.72;;;12.65;50.25
42727;BME280;28372;56.832;60.658;2022-10-16T10:04:57;98390.44;;;12.51;49.80
42727;BME280;28372;56.832;60.658;2022-10-16T10:07:27;98392.09;;;12.63;49.86
42727;BME280;28372;56.832;60.658;2022-10-16T10:09:56;98394.44;;;12.65;50.34
42727;BME280;28372;56.832;60.658;2022-10-16T10:12:27;98394.81;;;12.63;49.96
42727;BME280;28372;56.832;60.658;2022-10-16T10:14:56;98393.16;;;12.55;49.97
42727;BME280;28372;56.832;60.658;2022-10-16T10:17:27;98399.41;;;12.56;49.59
42727;BME280;28372;56.832;60.658;2022-10-16T10:20:22;98399.50;;;12.66;50.12
42727;BME280;28372;56.832;60.658;2022-10-16T10:22:49;98395.34;;;12.42;48.92
42727;BME280;28372;56.832;60.658;2022-10-16T10:25:35;98397.38;;;12.49;50.80
42727;BME280;28372;56.832;60.658;2022-10-16T10:36:12;98405.88;;;12.47;50.11
42727;BME280;28372;56.832;60.658;2022-10-16T10:44:20;98418.22;;;12.75;48.77
42727;BME280;28372;56.832;60.658;2022-10-16T10:46:51;98407.78;;;12.47;48.53
42727;BME280;28372;56.832;60.658;2022-10-16T10:49:47;98410.66;;;12.58;50.67
42727;BME280;28372;56.832;60.658;2022-10-16T10:55:48;98417.97;;;12.54;49.25
42727;BME280;28372;56.832;60.658;2022-10-16T10:58:34;98415.13;;;12.43;50.42
42727;BME280;28372;56.832;60.658;2022-10-16T11:01:53;98418.53;;;12.36;50.61
42727;BME280;28372;56.832;60.658;2022-10-16T11:05:02;98412.97;;;12.25;48.22
42727;BME280;28372;56.832;60.658;2022-10-16T11:07:15;98413.19;;;12.43;49.69
42727;BME280;28372;56.832;60.658;2022-10-16T11:09:47;98420.78;;;12.30;48.85
42727;BME280;28372;56.832;60.658;2022-10-16T11:15:07;98411.81;;;12.26;48.22
42727;BME280;28372;56.832;60.658;2022-10-16T11:17:41;98416.69;;;12.13;48.19
42727;BME280;28372;56.832;60.658;2022-10-16T11:20:57;98422.38;;;12.35;49.01
42727;BME280;28372;56.832;60.658;2022-10-16T11:23:43;98436.16;;;12.23;50.00
42727;BME280;28372;56.832;60.658;2022-10-16T11:26:20;98433.06;;;12.21;49.18
42727;BME280;28372;56.832;60.658;2022-10-16T11:28:51;98437.94;;;12.11;48.96
42727;BME280;28372;56.832;60.658;2022-10-16T11:31:38;98425.22;;;12.15;48.68
42727;BME280;28372;56.832;60.658;2022-10-16T11:34:44;98425.03;;;12.31;49.24
42727;BME280;28372;56.832;60.658;2022-10-16T11:37:19;98437.56;;;12.13;48.92
42727;BME280;28372;56.832;60.658;2022-10-16T11:39:52;98434.47;;;12.11;48.47
42727;BME280;28372;56.832;60.658;2022-10-16T11:42:32;98443.44;;;12.15;49.27
42727;BME280;28372;56.832;60.658;2022-10-16T11:45:27;98443.06;;;12.16;49.39
42727;BME280;28372;56.832;60.658;2022-10-16T11:53:21;98452.97;;;12.05;49.32
42727;BME280;28372;56.832;60.658;2022-10-16T11:55:51;98438.81;;;11.92;47.95
42727;BME280;28372;56.832;60.658;2022-10-16T11:58:26;98451.41;;;12.04;49.70
42727;BME280;28372;56.832;60.658;2022-10-16T12:08:47;98442.56;;;11.84;48.93
42727;BME280;28372;56.832;60.658;2022-10-16T12:14:20;98445.22;;;12.04;48.81
42727;BME280;28372;56.832;60.658;2022-10-16T12:19:21;98447.53;;;11.82;48.72
42727;BME280;28372;56.832;60.658;2022-10-16T12:21:50;98443.69;;;11.83;49.01
42727;BME280;28372;56.832;60.658;2022-10-16T12:26:52;98433.13;;;11.74;49.03
42727;BME280;28372;56.832;60.658;2022-10-16T12:29:38;98438.00;;;11.92;49.00
42727;BME280;28372;56.832;60.658;2022-10-16T12:35:21;98443.81;;;11.90;50.80
42727;BME280;28372;56.832;60.658;2022-10-16T12:37:50;98444.31;;;11.73;49.46
42727;BME280;28372;56.832;60.658;2022-10-16T12:42:49;98446.13;;;11.65;49.44
42727;BME280;28372;56.832;60.658;2022-10-16T12:45:31;98439.75;;;11.77;50.03
42727;BME280;28372;56.832;60.658;2022-10-16T12:48:01;98445.75;;;11.66;49.18
42727;BME280;28372;56.832;60.658;2022-10-16T12:50:35;98445.38;;;11.68;49.47
42727;BME280;28372;56.832;60.658;2022-10-16T12:53:17;98443.88;;;11.71;49.55
42727;BME280;28372;56.832;60.658;2022-10-16T12:56:04;98444.31;;;11.73;49.32
42727;BME280;28372;56.832;60.658;2022-10-16T13:04:14;98458.72;;;11.54;47.44
42727;BME280;28372;56.832;60.658;2022-10-16T13:09:35;98460.69;;;11.57;48.16
42727;BME280;28372;56.832;60.658;2022-10-16T13:23:17;98472.44;;;11.22;46.25
42727;BME280;28372;56.832;60.658;2022-10-16T13:27:29;98470.91;;;11.44;47.38
42727;BME280;28372;56.832;60.658;2022-10-16T13:29:21;98475.75;;;11.11;46.08
42727;BME280;28372;56.832;60.658;2022-10-16T13:31:49;98472.47;;;11.02;46.06
42727;BME280;28372;56.832;60.658;2022-10-16T13:34:20;98455.56;;;10.86;47.63
42727;BME280;28372;56.832;60.658;2022-10-16T13:36:51;98471.50;;;10.91;47.65
42727;BME280;28372;56.832;60.658;2022-10-16T13:39:28;98471.13;;;10.92;48.88
42727;BME280;28372;56.832;60.658;2022-10-16T13:44:44;98472.44;;;10.79;48.74
42727;BME280;28372;56.832;60.658;2022-10-16T13:47:20;98477.25;;;10.70;48.61
42727;BME280;28372;56.832;60.658;2022-10-16T13:49:59;98487.00;;;10.74;49.08
42727;BME280;28372;56.832;60.658;2022-10-16T13:52:29;98487.19;;;10.46;47.35
42727;BME280;28372;56.832;60.658;2022-10-16T13:54:57;98488.25;;;10.41;48.13
42727;BME280;28372;56.832;60.658;2022-10-16T13:57:29;98488.50;;;10.36;47.96
42727;BME280;28372;56.832;60.658;2022-10-16T13:59:57;98485.88;;;10.24;48.45
42727;BME280;28372;56.832;60.658;2022-10-16T14:02:37;98492.94;;;10.44;50.93
42727;BME280;28372;56.832;60.658;2022-10-16T14:05:08;98495.66;;;10.28;50.39
42727;BME280;28372;56.832;60.658;2022-10-16T14:07:38;98496.47;;;10.13;49.31
42727;BME280;28372;56.832;60.658;2022-10-16T14:10:18;98498.81;;;10.15;50.35
42727;BME280;28372;56.832;60.658;2022-10-16T14:12:55;98497.94;;;10.26;52.31
42727;BME280;28372;56.832;60.658;2022-10-16T14:15:23;98495.97;;;10.07;50.36
42727;BME280;28372;56.832;60.658;2022-10-16T14:17:51;98494.47;;;10.10;50.85
42727;BME280;28372;56.832;60.658;2022-10-16T14:20:24;98501.00;;;10.09;52.12
42727;BME280;28372;56.832;60.658;2022-10-16T14:23:02;98497.59;;;10.12;53.17
42727;BME280;28372;56.832;60.658;2022-10-16T14:25:32;98499.38;;;10.04;52.41
42727;BME280;28372;56.832;60.658;2022-10-16T14:28:21;98501.59;;;10.18;54.18
42727;BME280;28372;56.832;60.658;2022-10-16T14:30:52;98506.31;;;10.05;51.87
42727;BME280;28372;56.832;60.658;2022-10-16T14:38:30;98514.19;;;9.94;52.78
42727;BME280;28372;56.832;60.658;2022-10-16T14:40:59;98506.41;;;9.93;53.02
42727;BME280;28372;56.832;60.658;2022-10-16T14:43:37;98505.63;;;10.08;53.81
42727;BME280;28372;56.832;60.658;2022-10-16T14:46:12;98501.88;;;10.13;55.19
42727;BME280;28372;56.832;60.658;2022-10-16T14:48:47;98506.50;;;10.12;54.79
42727;BME280;28372;56.832;60.658;2022-10-16T14:51:19;98508.06;;;10.14;54.09
42727;BME280;28372;56.832;60.658;2022-10-16T14:53:47;98505.19;;;10.06;52.10
42727;BME280;28372;56.832;60.658;2022-10-16T14:56:19;98505.81;;;10.16;53.71
42727;BME280;28372;56.832;60.658;2022-10-16T14:58:48;98517.28;;;10.12;52.73